createdAt,value
2023-04-18T00:02:07.217Z,76.79
2023-04-18T00:04:34.226Z,74.77
2023-04-18T00:07:03.010Z,73.47
2023-04-18T00:09:29.557Z,72.25
2023-04-18T00:11:56.182Z,71.88
2023-04-18T00:14:23.152Z,71.70
2023-04-18T00:16:54.289Z,71.41
2023-04-18T00:19:20.823Z,71.62
2023-04-18T00:21:47.329Z,70.88
2023-04-18T00:24:13.995Z,70.27
2023-04-18T00:26:40.607Z,69.66
2023-04-18T00:29:07.080Z,68.48
2023-04-18T00:31:35.875Z,67.83
2023-04-18T00:34:02.488Z,67.53
2023-04-18T00:36:28.947Z,66.28
2023-04-18T00:38:55.532Z,65.55
2023-04-18T00:41:22.240Z,65.69
2023-04-18T00:43:53.708Z,64.63
2023-04-18T00:46:20.374Z,64.66
2023-04-18T00:48:51.613Z,65.00
2023-04-18T00:51:18.200Z,64.95
2023-04-18T00:53:49.416Z,65.07
2023-04-18T00:56:16.166Z,65.79
2023-04-18T00:58:42.706Z,65.50
2023-04-18T01:01:13.400Z,66.24
2023-04-18T01:03:48.063Z,65.76
2023-04-18T01:06:20.080Z,65.18
2023-04-18T01:08:49.158Z,65.94
2023-04-18T01:11:18.084Z,65.79
2023-04-18T01:14:01.569Z,65.28
2023-04-18T01:16:32.793Z,65.53
2023-04-18T01:19:03.903Z,65.46
2023-04-18T01:21:33.794Z,65.34
2023-04-18T01:24:11.527Z,65.41
2023-04-18T01:26:44.864Z,65.58
2023-04-18T01:29:11.836Z,65.80
2023-04-18T01:31:39.978Z,65.76
2023-04-18T01:34:07.072Z,65.51
2023-04-18T01:36:36.607Z,66.14
2023-04-18T01:39:03.545Z,66.30
2023-04-18T01:41:32.883Z,66.46
2023-04-18T01:44:00.336Z,66.07
2023-04-18T01:46:31.925Z,66.15
2023-04-18T01:48:59.195Z,66.17
2023-04-18T01:51:28.241Z,66.46
2023-04-18T01:53:57.080Z,66.14
2023-04-18T01:56:23.749Z,66.86
2023-04-18T01:58:54.961Z,66.59
2023-04-18T02:01:23.855Z,67.15
2023-04-18T02:03:50.812Z,66.66
2023-04-18T02:06:17.573Z,67.22
2023-04-18T02:08:46.308Z,67.15
2023-04-18T02:11:15.278Z,67.44
2023-04-18T02:13:44.257Z,68.08
2023-04-18T02:16:16.437Z,68.22
2023-04-18T02:18:46.954Z,68.41
2023-04-18T02:21:13.390Z,68.55
2023-04-18T02:23:39.853Z,68.97
2023-04-18T02:26:06.519Z,68.98
2023-04-18T02:28:33.063Z,68.99
2023-04-18T02:31:02.125Z,69.01
2023-04-18T02:33:29.159Z,69.16
2023-04-18T02:35:55.856Z,69.00
2023-04-18T02:38:22.416Z,69.24
2023-04-18T02:40:48.904Z,69.47
2023-04-18T02:43:17.928Z,69.66
2023-04-18T02:45:44.476Z,69.84
2023-04-18T02:48:11.042Z,69.97
2023-04-18T02:50:39.970Z,70.14
2023-04-18T02:53:06.531Z,70.12
2023-04-18T02:55:37.964Z,70.28
2023-04-18T02:58:06.596Z,70.23
2023-04-18T03:00:34.745Z,70.34
2023-04-18T03:03:01.585Z,70.58
2023-04-18T03:05:28.789Z,70.34
2023-04-18T03:08:00.202Z,70.77
2023-04-18T03:10:26.642Z,70.77
2023-04-18T03:12:55.507Z,71.02
2023-04-18T03:15:24.663Z,71.29
2023-04-18T03:17:51.468Z,71.18
2023-04-18T03:20:18.202Z,71.10
2023-04-18T03:22:44.766Z,71.09
2023-04-18T03:25:18.570Z,71.09
2023-04-18T03:27:45.153Z,71.49
2023-04-18T03:30:14.350Z,71.76
2023-04-18T03:32:42.152Z,71.73
2023-04-18T03:35:09.412Z,72.07
2023-04-18T03:37:38.088Z,71.97
2023-04-18T03:40:05.477Z,72.03
2023-04-18T03:42:36.771Z,72.12
2023-04-18T03:45:05.616Z,72.50
2023-04-18T03:47:32.154Z,72.61
2023-04-18T03:49:58.705Z,72.60
2023-04-18T03:52:25.354Z,73.37
2023-04-18T03:54:54.317Z,72.84
2023-04-18T03:57:23.035Z,72.79
2023-04-18T03:59:54.263Z,72.50
2023-04-18T04:02:21.035Z,72.90
2023-04-18T04:04:47.696Z,72.81
2023-04-18T04:07:14.363Z,72.60
2023-04-18T04:09:43.111Z,72.45
2023-04-18T04:12:09.635Z,72.60
2023-04-18T04:14:36.181Z,72.98
2023-04-18T04:17:05.616Z,72.26
2023-04-18T04:19:32.097Z,72.49
2023-04-18T04:22:01.105Z,72.48
2023-04-18T04:24:29.045Z,72.46
2023-04-18T04:26:56.284Z,72.53
2023-04-18T04:29:23.800Z,72.79
2023-04-18T04:31:52.814Z,72.63
2023-04-18T04:34:21.863Z,73.18
2023-04-18T04:36:48.666Z,73.02
2023-04-18T04:39:18.730Z,72.58
2023-04-18T04:41:47.079Z,72.79
2023-04-18T04:44:17.523Z,72.82
2023-04-18T04:46:44.899Z,73.06
2023-04-18T04:49:11.915Z,73.47
2023-04-18T04:51:41.683Z,73.62
2023-04-18T04:54:08.174Z,73.56
2023-04-18T04:56:36.821Z,73.68
2023-04-18T04:59:05.969Z,73.78
2023-04-18T05:01:34.484Z,73.94
2023-04-18T05:04:01.179Z,73.91
2023-04-18T05:06:30.575Z,74.23
2023-04-18T05:08:59.435Z,73.98
2023-04-18T05:11:28.296Z,74.38
2023-04-18T05:13:54.804Z,74.50
2023-04-18T05:16:21.321Z,74.72
2023-04-18T05:18:52.375Z,74.73
2023-04-18T05:21:21.332Z,75.06
2023-04-18T05:23:50.600Z,75.03
2023-04-18T05:26:18.713Z,75.05
2023-04-18T05:28:45.367Z,75.06
2023-04-18T05:31:11.865Z,75.12
2023-04-18T05:33:43.103Z,74.99
2023-04-18T05:36:09.632Z,75.04
2023-04-18T05:38:36.058Z,75.21
2023-04-18T05:41:04.760Z,75.15
2023-04-18T05:43:31.348Z,75.10
2023-04-18T05:45:58.063Z,75.25
2023-04-18T05:48:25.182Z,75.83
2023-04-18T05:50:51.675Z,75.60
2023-04-18T05:53:20.381Z,75.58
2023-04-18T05:55:50.123Z,75.66
2023-04-18T05:58:17.792Z,75.94
2023-04-18T06:00:48.057Z,76.01
2023-04-18T06:03:17.383Z,75.94
2023-04-18T06:05:46.306Z,76.13
2023-04-18T06:08:12.809Z,76.01
2023-04-18T06:10:41.600Z,76.06
2023-04-18T06:13:10.651Z,75.71
2023-04-18T06:15:37.195Z,75.69
2023-04-18T06:18:06.269Z,75.97
2023-04-18T06:20:32.803Z,75.73
2023-04-18T06:22:59.260Z,75.44
2023-04-18T06:25:25.982Z,75.54
2023-04-18T06:27:52.546Z,75.56
2023-04-18T06:30:21.876Z,75.36
2023-04-18T06:32:48.502Z,74.95
2023-04-18T06:35:18.049Z,75.00
2023-04-18T06:37:47.387Z,74.48
2023-04-18T06:40:16.234Z,74.61
2023-04-18T06:42:43.483Z,73.98
2023-04-18T06:45:13.423Z,73.93
2023-04-18T06:47:40.560Z,73.80
2023-04-18T06:50:08.146Z,73.21
2023-04-18T06:52:40.490Z,73.70
2023-04-18T06:55:09.962Z,73.63
2023-04-18T06:57:39.704Z,73.39
2023-04-18T07:00:10.432Z,72.76
2023-04-18T07:02:38.909Z,72.79
2023-04-18T07:05:06.399Z,73.30
2023-04-18T07:07:35.667Z,72.99
2023-04-18T07:10:06.425Z,72.77
2023-04-18T07:12:33.801Z,73.04
2023-04-18T07:15:00.336Z,73.44
2023-04-18T07:17:26.910Z,73.36
2023-04-18T07:19:53.667Z,73.04
2023-04-18T07:22:25.525Z,73.51
2023-04-18T07:24:54.329Z,73.11
2023-04-18T07:27:20.870Z,73.61
2023-04-18T07:29:47.366Z,72.98
2023-04-18T07:32:16.153Z,72.23
2023-04-18T07:34:42.735Z,72.64
2023-04-18T07:37:13.483Z,72.17
2023-04-18T07:39:41.344Z,72.39
2023-04-18T07:42:07.895Z,71.55
2023-04-18T07:44:36.085Z,70.78
2023-04-18T07:47:03.380Z,68.76
2023-04-18T07:49:29.998Z,68.27
2023-04-18T07:51:56.507Z,68.11
2023-04-18T07:54:25.569Z,68.14
2023-04-18T07:56:52.096Z,66.84
2023-04-18T07:59:18.584Z,64.95
2023-04-18T08:01:48.332Z,65.02
2023-04-18T08:04:17.459Z,62.76
2023-04-18T08:06:44.119Z,62.81
2023-04-18T08:09:12.018Z,62.94
2023-04-18T08:11:39.099Z,64.02
2023-04-18T08:14:05.646Z,63.47
2023-04-18T08:16:32.182Z,63.02
2023-04-18T08:18:58.670Z,58.48
2023-04-18T08:21:30.523Z,58.82
2023-04-18T08:23:59.304Z,61.56
2023-04-18T08:26:25.975Z,61.94
2023-04-18T08:28:54.714Z,62.10
2023-04-18T08:31:23.735Z,63.01
2023-04-18T08:33:50.472Z,63.92
2023-04-18T08:36:19.303Z,65.09
2023-04-18T08:38:46.676Z,65.90
2023-04-18T08:41:19.555Z,66.28
2023-04-18T08:43:48.718Z,66.42
2023-04-18T08:46:17.573Z,66.03
2023-04-18T08:48:44.586Z,64.89
2023-04-18T08:51:11.401Z,62.90
2023-04-18T08:53:39.274Z,62.33
2023-04-18T08:56:10.396Z,62.86
2023-04-18T08:58:36.967Z,63.95
2023-04-18T09:01:07.298Z,65.14
2023-04-18T09:03:37.523Z,64.33
2023-04-18T09:06:13.622Z,63.54
2023-04-18T09:08:44.354Z,64.47
2023-04-18T09:11:26.106Z,64.37
2023-04-18T09:13:56.499Z,64.54
2023-04-18T09:16:23.773Z,64.66
2023-04-18T09:19:18.015Z,65.28
2023-04-18T09:21:50.549Z,63.74
2023-04-18T09:24:24.928Z,60.89
2023-04-18T09:26:56.033Z,60.60
2023-04-18T09:29:46.192Z,60.43
2023-04-18T09:32:30.642Z,61.77
2023-04-18T09:35:03.918Z,60.34
2023-04-18T09:37:31.464Z,60.71
2023-04-18T09:39:57.932Z,61.96
2023-04-18T09:42:26.752Z,62.12
2023-04-18T09:45:00.767Z,60.59
2023-04-18T09:47:30.834Z,61.16
2023-04-18T09:49:57.428Z,62.25
2023-04-18T09:52:25.989Z,63.13
2023-04-18T09:55:02.089Z,61.46
2023-04-18T09:57:30.431Z,62.94
2023-04-18T10:00:30.342Z,61.87
2023-04-18T10:03:09.698Z,63.69
2023-04-18T10:05:39.470Z,63.69
2023-04-18T10:08:07.342Z,63.71
2023-04-18T10:10:33.946Z,63.80
2023-04-18T10:13:08.431Z,64.96
2023-04-18T10:15:35.113Z,64.62
2023-04-18T10:18:09.038Z,64.24
2023-04-18T10:20:36.070Z,61.54
2023-04-18T10:23:38.961Z,61.74
2023-04-18T10:26:09.948Z,61.66
2023-04-18T10:28:58.624Z,61.49
2023-04-18T10:31:29.652Z,62.96
2023-04-18T10:34:05.668Z,63.29
2023-04-18T10:36:33.323Z,62.63
2023-04-18T10:39:24.584Z,61.50
2023-04-18T10:41:53.858Z,60.40
2023-04-18T10:44:27.511Z,60.86
2023-04-18T10:46:54.024Z,59.12
2023-04-18T10:49:32.870Z,58.81
2023-04-18T10:52:03.347Z,59.52
2023-04-18T10:55:05.583Z,58.09
2023-04-18T10:57:46.056Z,59.12
2023-04-18T11:00:16.044Z,58.05
2023-04-18T11:02:57.917Z,59.77
2023-04-18T11:05:27.822Z,58.72
2023-04-18T11:07:55.047Z,59.94
2023-04-18T11:10:26.258Z,60.27
2023-04-18T11:12:53.658Z,60.22
2023-04-18T11:15:22.662Z,59.98
2023-04-18T11:17:59.570Z,59.54
2023-04-18T11:20:29.176Z,60.69
2023-04-18T11:23:00.680Z,61.33
2023-04-18T11:25:30.219Z,60.39
2023-04-18T11:28:05.231Z,60.25
2023-04-18T11:30:39.256Z,59.88
2023-04-18T11:33:11.608Z,60.16
2023-04-18T11:35:45.770Z,60.66
2023-04-18T11:38:16.043Z,58.46
2023-04-18T11:40:50.054Z,59.13
2023-04-18T11:43:24.566Z,56.28
2023-04-18T11:45:57.338Z,57.98
2023-04-18T11:48:24.902Z,56.47
2023-04-18T11:50:54.333Z,57.33
2023-04-18T11:53:35.962Z,57.61
2023-04-18T11:56:05.780Z,59.95
2023-04-18T11:58:34.006Z,58.96
2023-04-18T12:01:15.162Z,59.09
2023-04-18T12:03:44.178Z,59.54
2023-04-18T12:06:14.446Z,59.40
2023-04-18T12:08:43.387Z,59.56
2023-04-18T12:11:09.913Z,59.94
2023-04-18T12:13:36.392Z,59.06
2023-04-18T12:16:07.739Z,60.00
2023-04-18T12:18:34.480Z,60.50
2023-04-18T12:21:05.953Z,60.42
2023-04-18T12:23:38.951Z,61.43
2023-04-18T12:26:14.717Z,61.57
2023-04-18T12:28:45.742Z,62.06
2023-04-18T12:31:14.790Z,61.88
2023-04-18T12:33:46.166Z,61.57
2023-04-18T12:36:12.684Z,61.63
2023-04-18T12:38:41.385Z,61.15
2023-04-18T12:41:07.990Z,60.37
2023-04-18T12:43:34.618Z,60.50
2023-04-18T12:46:01.204Z,61.81
2023-04-18T12:48:28.457Z,62.09
2023-04-18T12:50:55.012Z,61.60
2023-04-18T12:53:21.513Z,62.68
2023-04-18T12:55:49.023Z,63.02
2023-04-18T12:58:18.559Z,63.24
2023-04-18T13:00:45.218Z,63.20
2023-04-18T13:03:13.437Z,64.05
2023-04-18T13:05:44.898Z,63.75
2023-04-18T13:08:17.995Z,63.66
2023-04-18T13:10:48.274Z,64.29
2023-04-18T13:13:14.963Z,64.66
2023-04-18T13:15:41.550Z,64.12
2023-04-18T13:18:10.640Z,63.88
2023-04-18T13:20:39.631Z,64.29
2023-04-18T13:23:06.118Z,63.59
2023-04-18T13:25:32.742Z,63.72
2023-04-18T13:28:00.749Z,63.85
2023-04-18T13:30:27.728Z,62.66
2023-04-18T13:32:56.740Z,63.20
2023-04-18T13:35:23.701Z,62.40
2023-04-18T13:37:52.763Z,62.69
2023-04-18T13:40:21.612Z,62.56
2023-04-18T13:42:48.049Z,62.73
2023-04-18T13:45:17.225Z,61.49
2023-04-18T13:47:46.265Z,62.13
2023-04-18T13:50:13.121Z,62.52
2023-04-18T13:52:41.916Z,60.68
2023-04-18T13:55:12.466Z,61.10
2023-04-18T13:57:39.189Z,58.23
2023-04-18T14:00:06.618Z,56.76
2023-04-18T14:02:33.413Z,56.70
2023-04-18T14:05:02.776Z,58.12
2023-04-18T14:07:32.432Z,59.89
2023-04-18T14:09:58.977Z,59.52
2023-04-18T14:12:28.064Z,57.17
2023-04-18T14:14:54.552Z,59.04
2023-04-18T14:17:24.034Z,57.80
2023-04-18T14:19:52.944Z,57.49
2023-04-18T14:22:19.444Z,59.57
2023-04-18T14:24:49.073Z,58.27
2023-04-18T14:27:15.769Z,58.12
2023-04-18T14:29:42.296Z,58.01
2023-04-18T14:32:08.773Z,58.13
2023-04-18T14:34:44.720Z,58.07
2023-04-18T14:37:14.618Z,58.89
2023-04-18T14:39:44.491Z,57.86
2023-04-18T14:42:11.030Z,56.79
2023-04-18T14:44:39.803Z,57.02
2023-04-18T14:47:06.509Z,56.22
2023-04-18T14:49:35.334Z,58.37
2023-04-18T14:52:01.811Z,57.80
2023-04-18T14:54:29.261Z,58.93
2023-04-18T14:56:59.586Z,58.42
2023-04-18T14:59:28.011Z,57.87
2023-04-18T15:01:54.589Z,57.66
2023-04-18T15:04:21.614Z,56.99
2023-04-18T15:06:50.640Z,55.32
2023-04-18T15:09:17.143Z,57.12
2023-04-18T15:11:43.672Z,57.42
2023-04-18T15:14:10.663Z,56.42
2023-04-18T15:16:40.862Z,56.79
2023-04-18T15:19:07.500Z,55.34
2023-04-18T15:21:33.968Z,56.87
2023-04-18T15:24:02.699Z,57.38
2023-04-18T15:26:31.070Z,56.15
2023-04-18T15:29:03.436Z,54.39
2023-04-18T15:31:30.874Z,55.40
2023-04-18T15:33:59.841Z,55.84
2023-04-18T15:36:27.718Z,55.04
2023-04-18T15:38:56.561Z,56.44
2023-04-18T15:41:23.291Z,55.57
2023-04-18T15:43:52.764Z,56.64
2023-04-18T15:46:22.030Z,56.56
2023-04-18T15:48:48.567Z,55.80
2023-04-18T15:51:19.966Z,54.78
2023-04-18T15:53:46.572Z,55.69
2023-04-18T15:56:13.796Z,53.95
2023-04-18T15:58:40.313Z,55.15
2023-04-18T16:01:06.979Z,56.00
2023-04-18T16:03:33.916Z,55.67
2023-04-18T16:06:04.491Z,56.62
2023-04-18T16:08:33.091Z,57.05
2023-04-18T16:11:02.930Z,57.26
2023-04-18T16:13:29.589Z,56.09
2023-04-18T16:15:56.175Z,56.43
2023-04-18T16:18:22.760Z,56.37
2023-04-18T16:20:49.557Z,55.29
2023-04-18T16:23:16.036Z,56.18
2023-04-18T16:25:47.645Z,55.46
2023-04-18T16:28:14.204Z,55.52
2023-04-18T16:30:45.008Z,55.56
2023-04-18T16:33:11.606Z,55.77
2023-04-18T16:35:38.638Z,56.17
2023-04-18T16:38:05.107Z,55.85
2023-04-18T16:40:34.989Z,56.73
2023-04-18T16:43:03.933Z,57.35
2023-04-18T16:45:32.836Z,56.70
2023-04-18T16:47:59.356Z,57.72
2023-04-18T16:50:26.436Z,56.93
2023-04-18T16:52:55.022Z,57.48
2023-04-18T16:55:21.595Z,57.13
2023-04-18T16:57:48.117Z,54.78
2023-04-18T17:00:17.236Z,54.36
2023-04-18T17:02:44.260Z,55.26
2023-04-18T17:05:13.244Z,55.46
2023-04-18T17:07:42.096Z,55.79
2023-04-18T17:10:11.856Z,56.52
2023-04-18T17:12:40.805Z,56.96
2023-04-18T17:15:10.974Z,57.29
2023-04-18T17:17:37.541Z,58.14
2023-04-18T17:20:07.003Z,59.16
2023-04-18T17:22:33.474Z,59.58
2023-04-18T17:25:00.058Z,59.03
2023-04-18T17:27:28.133Z,59.09
2023-04-18T17:29:54.871Z,57.74
2023-04-18T17:32:22.578Z,57.90
2023-04-18T17:34:51.649Z,58.63
2023-04-18T17:37:19.581Z,58.63
2023-04-18T17:39:45.994Z,57.60
2023-04-18T17:42:12.563Z,57.03
2023-04-18T17:44:41.771Z,57.65
2023-04-18T17:47:08.310Z,57.74
2023-04-18T17:49:35.094Z,58.18
2023-04-18T17:52:02.406Z,58.17
2023-04-18T17:54:37.810Z,58.75
2023-04-18T17:57:04.474Z,58.89
2023-04-18T17:59:31.163Z,59.12
2023-04-18T18:02:00.087Z,59.55
2023-04-18T18:04:27.434Z,59.55
2023-04-18T18:06:56.058Z,59.96
2023-04-18T18:09:22.736Z,60.17
2023-04-18T18:11:49.256Z,60.96
2023-04-18T18:14:20.473Z,60.38
2023-04-18T18:16:49.403Z,60.54
2023-04-18T18:19:16.859Z,60.86
2023-04-18T18:21:43.850Z,60.97
2023-04-18T18:24:13.114Z,61.13
2023-04-18T18:26:39.672Z,61.12
2023-04-18T18:29:11.581Z,61.26
2023-04-18T18:31:38.992Z,61.23
2023-04-18T18:34:08.290Z,61.24
2023-04-18T18:36:34.795Z,61.57
2023-04-18T18:39:01.290Z,61.42
2023-04-18T18:41:30.073Z,61.40
2023-04-18T18:43:56.599Z,61.77
2023-04-18T18:46:23.357Z,62.01
2023-04-18T18:48:50.411Z,62.33
2023-04-18T18:51:19.376Z,62.55
2023-04-18T18:53:46.664Z,63.30
2023-04-18T18:56:15.726Z,63.46
2023-04-18T18:58:43.766Z,63.38
2023-04-18T19:01:12.695Z,63.18
2023-04-18T19:03:39.312Z,63.70
2023-04-18T19:06:07.305Z,64.06
2023-04-18T19:08:36.104Z,64.50
2023-04-18T19:11:02.684Z,64.62
2023-04-18T19:13:31.552Z,64.64
2023-04-18T19:15:58.285Z,64.98
2023-04-18T19:18:29.677Z,64.94
2023-04-18T19:20:58.566Z,64.50
2023-04-18T19:23:27.817Z,64.58
2023-04-18T19:25:59.411Z,64.47
2023-04-18T19:28:26.181Z,64.41
2023-04-18T19:30:53.145Z,64.37
2023-04-18T19:33:20.507Z,64.54
2023-04-18T19:35:49.342Z,64.62
2023-04-18T19:38:15.999Z,64.64
2023-04-18T19:40:44.897Z,64.81
2023-04-18T19:43:13.693Z,65.14
2023-04-18T19:45:40.291Z,65.02
2023-04-18T19:48:06.969Z,65.22
2023-04-18T19:50:33.584Z,65.67
2023-04-18T19:53:02.396Z,65.83
2023-04-18T19:55:28.993Z,66.01
2023-04-18T19:57:58.596Z,66.13
2023-04-18T20:00:25.595Z,66.11
2023-04-18T20:02:52.403Z,66.09
2023-04-18T20:05:23.954Z,66.27
2023-04-18T20:07:50.814Z,66.14
2023-04-18T20:10:20.994Z,66.33
2023-04-18T20:12:49.862Z,66.26
2023-04-18T20:15:18.934Z,66.21
2023-04-18T20:17:47.913Z,66.19
2023-04-18T20:20:14.543Z,66.43
2023-04-18T20:22:42.998Z,66.58
2023-04-18T20:25:09.615Z,66.34
2023-04-18T20:27:36.139Z,66.40
2023-04-18T20:30:02.690Z,66.44
2023-04-18T20:32:34.683Z,66.48
2023-04-18T20:35:04.431Z,66.70
2023-04-18T20:37:36.754Z,66.93
2023-04-18T20:40:08.777Z,67.09
2023-04-18T20:42:39.257Z,67.10
2023-04-18T20:45:06.464Z,67.45
2023-04-18T20:47:33.854Z,67.27
2023-04-18T20:50:05.115Z,67.37
2023-04-18T20:52:31.639Z,67.24
2023-04-18T20:55:00.592Z,67.30
2023-04-18T20:57:27.401Z,67.50
2023-04-18T20:59:58.491Z,67.68
2023-04-18T21:02:27.690Z,67.71
2023-04-18T21:04:54.736Z,67.73
2023-04-18T21:07:21.266Z,67.83
2023-04-18T21:09:50.235Z,67.52
2023-04-18T21:12:16.772Z,67.72
2023-04-18T21:14:45.614Z,67.63
2023-04-18T21:17:17.393Z,68.13
2023-04-18T21:19:48.034Z,68.06
2023-04-18T21:22:15.908Z,68.02
2023-04-18T21:24:43.359Z,67.98
2023-04-18T21:27:13.138Z,67.82
2023-04-18T21:29:41.057Z,67.92
2023-04-18T21:32:09.877Z,68.07
2023-04-18T21:34:38.942Z,68.17
2023-04-18T21:37:05.485Z,68.18
2023-04-18T21:39:34.168Z,68.30
2023-04-18T21:42:03.512Z,68.68
2023-04-18T21:44:32.393Z,68.73
2023-04-18T21:47:01.337Z,68.82
2023-04-18T21:49:27.835Z,69.09
2023-04-18T21:51:55.018Z,69.17
2023-04-18T21:54:23.989Z,69.47
2023-04-18T21:56:50.557Z,69.15
2023-04-18T21:59:19.301Z,69.31
2023-04-18T22:01:48.221Z,69.70
2023-04-18T22:04:20.941Z,69.74
2023-04-18T22:06:47.682Z,70.25
2023-04-18T22:09:19.314Z,70.21
2023-04-18T22:11:46.017Z,70.25
2023-04-18T22:14:14.524Z,70.48
2023-04-18T22:16:41.328Z,70.46
2023-04-18T22:19:09.059Z,70.99
2023-04-18T22:21:35.549Z,70.96
2023-04-18T22:24:02.017Z,71.28
2023-04-18T22:26:28.672Z,71.44
2023-04-18T22:28:55.164Z,71.35
2023-04-18T22:31:21.658Z,71.53
2023-04-18T22:33:48.238Z,71.65
2023-04-18T22:36:14.691Z,71.86
2023-04-18T22:38:43.561Z,71.72
2023-04-18T22:41:10.017Z,71.82
2023-04-18T22:43:36.464Z,72.28
2023-04-18T22:46:05.283Z,72.25
2023-04-18T22:48:35.137Z,72.50
2023-04-18T22:51:06.776Z,72.79
2023-04-18T22:53:33.251Z,72.80
2023-04-18T22:55:59.714Z,72.98
2023-04-18T22:58:29.762Z,73.32
2023-04-18T23:01:01.498Z,73.50
2023-04-18T23:03:31.059Z,73.57
2023-04-18T23:05:57.592Z,73.54
2023-04-18T23:08:27.860Z,73.58
2023-04-18T23:10:56.666Z,73.94
2023-04-18T23:13:25.372Z,73.83
2023-04-18T23:15:51.963Z,74.12
2023-04-18T23:18:18.806Z,74.18
2023-04-18T23:20:45.868Z,74.43
2023-04-18T23:23:14.898Z,74.83
2023-04-18T23:25:46.176Z,74.70
2023-04-18T23:28:13.600Z,74.59
2023-04-18T23:30:45.064Z,74.95
2023-04-18T23:33:13.720Z,74.79
2023-04-18T23:35:40.220Z,74.93
2023-04-18T23:38:06.674Z,75.00
2023-04-18T23:40:35.888Z,75.06
2023-04-18T23:43:02.479Z,75.40
2023-04-18T23:45:28.957Z,75.30
2023-04-18T23:47:55.681Z,75.56
2023-04-18T23:50:24.678Z,75.56
2023-04-18T23:52:51.374Z,75.79
2023-04-18T23:55:20.396Z,75.86
2023-04-18T23:57:46.875Z,76.16
